Time;durP1;ratioP1;P1;durP2;ratioP2;P2;SDS_P1;SDS_P2;PMS_P1;PMS_P2;Temp;Humidity;BMP_temperature;BMP_pressure;BME280_temperature;BME280_humidity;BME280_pressure;Samples;Min_cycle;Max_cycle;Signal;HPM_P1;HPM_P2
2021/12/27 00:01:23;;;;;;;;;;;;;;;2.90;78.27;99587.28;5093321;28;20317;-87
2021/12/27 00:03:50;;;;;;;;;;;;;;;3.03;78.01;99591.81;5092547;28;19916;-88
2021/12/27 00:06:16;;;;;;;;;;;;;;;3.28;76.82;99598.22;5093023;28;20314;-87
2021/12/27 00:08:42;;;;;;;;;;;;;;;3.21;76.59;99601.59;5092770;28;19920;-87
2021/12/27 00:11:08;;;;;;;;;;;;;;;3.10;77.17;99600.59;5092923;28;19916;-87
2021/12/27 00:13:34;;;;;;;;;;;;;;;3.05;77.65;99606.59;5092368;28;20011;-87
2021/12/27 00:15:59;;;;;;;;;;;;;;;3.07;77.10;99601.41;5093361;28;20366;-87
2021/12/27 00:18:25;;;;;;;;;;;;;;;3.13;77.38;99596.28;5092755;28;19965;-87
2021/12/27 00:20:50;;;;;;;;;;;;;;;2.90;77.33;99608.13;5092687;28;20003;-87
2021/12/27 00:23:15;;;;;;;;;;;;;;;2.62;79.57;99612.91;5093437;28;20000;-87
2021/12/27 00:25:41;;;;;;;;;;;;;;;2.93;79.13;99600.34;5092800;28;19963;-86
2021/12/27 00:28:06;;;;;;;;;;;;;;;2.96;78.42;99609.09;5092614;28;19920;-87
2021/12/27 00:30:31;;;;;;;;;;;;;;;3.02;77.97;99621.34;5092671;28;19962;-87
2021/12/27 00:32:57;;;;;;;;;;;;;;;3.17;77.84;99599.84;5092182;28;19920;-87
2021/12/27 00:35:26;;;;;;;;;;;;;;;3.18;77.54;99597.25;5092699;28;19956;-87
2021/12/27 00:37:51;;;;;;;;;;;;;;;3.30;77.23;99596.50;5091711;28;19912;-87
2021/12/27 00:40:17;;;;;;;;;;;;;;;3.37;76.30;99597.47;5092650;28;19923;-87
2021/12/27 00:42:42;;;;;;;;;;;;;;;3.14;77.24;99589.34;5112043;28;19917;-87
2021/12/27 00:45:08;;;;;;;;;;;;;;;3.21;76.77;99594.69;5112486;28;19923;-87
2021/12/27 00:47:33;;;;;;;;;;;;;;;2.99;77.12;99598.69;5112471;28;20417;-87
2021/12/27 00:49:59;;;;;;;;;;;;;;;2.92;78.57;99582.97;5112521;28;19915;-86
2021/12/27 00:52:24;;;;;;;;;;;;;;;3.03;77.86;99586.63;5112628;28;19921;-86
2021/12/27 00:54:50;;;;;;;;;;;;;;;2.91;78.09;99589.91;5112773;28;19927;-87
2021/12/27 00:57:15;;;;;;;;;;;;;;;2.94;78.39;99587.34;5113076;28;19919;-86
2021/12/27 00:59:40;;;;;;;;;;;;;;;3.15;77.01;99580.66;5112249;28;19920;-87
2021/12/27 01:02:06;;;;;;;;;;;;;;;3.23;76.98;99576.44;5111463;28;19923;-86
2021/12/27 01:04:31;;;;;;;;;;;;;;;3.33;76.11;99570.47;5112347;28;19973;-87
2021/12/27 01:06:56;;;;;;;;;;;;;;;3.14;77.05;99558.94;5111500;28;19959;-87
2021/12/27 01:09:39;;;;;;;;;;;;;;;3.09;77.27;99564.94;5112695;28;20298;-87
2021/12/27 01:12:24;;;;;;;;;;;;;;;2.69;78.74;99580.91;5109707;28;19920;-87
2021/12/27 01:17:34;;;;;;;;;;;;;;;3.04;78.80;99552.75;5111626;28;20015;-87
2021/12/27 01:19:59;;;;;;;;;;;;;;;3.09;78.06;99542.38;5112402;28;19922;-87
2021/12/27 01:22:25;;;;;;;;;;;;;;;3.27;77.23;99528.69;5110875;28;20002;-87
2021/12/27 01:24:50;;;;;;;;;;;;;;;3.29;76.70;99549.56;5111239;27;19915;-87
2021/12/27 01:27:15;;;;;;;;;;;;;;;2.50;79.16;99574.53;5110669;28;19916;-87
2021/12/27 01:29:40;;;;;;;;;;;;;;;2.84;79.55;99567.22;5111901;28;19919;-87
2021/12/27 01:32:06;;;;;;;;;;;;;;;2.93;79.01;99563.88;5111296;27;19919;-88
2021/12/27 01:34:32;;;;;;;;;;;;;;;3.04;78.45;99559.66;5112037;28;20297;-88
2021/12/27 01:36:58;;;;;;;;;;;;;;;2.67;79.50;99575.69;5110695;28;20076;-87
2021/12/27 01:39:23;;;;;;;;;;;;;;;2.90;79.73;99561.22;5110724;28;20460;-87
2021/12/27 01:41:49;;;;;;;;;;;;;;;2.94;78.97;99570.84;5111181;28;20006;-87
2021/12/27 01:44:14;;;;;;;;;;;;;;;3.01;79.08;99573.56;5111453;28;20381;-87
2021/12/27 01:46:40;;;;;;;;;;;;;;;3.09;78.55;99565.84;5111404;28;19923;-87
2021/12/27 01:49:07;;;;;;;;;;;;;;;3.13;78.24;99571.97;5110900;28;19922;-88
2021/12/27 01:51:32;;;;;;;;;;;;;;;3.16;77.88;99569.41;5111591;28;19922;-87
2021/12/27 01:53:58;;;;;;;;;;;;;;;3.14;77.30;99545.91;5110834;28;19916;-87
2021/12/27 01:56:24;;;;;;;;;;;;;;;3.02;77.79;99548.38;5111467;28;20297;-87
2021/12/27 01:58:50;;;;;;;;;;;;;;;2.76;78.98;99555.81;5111386;28;19965;-87
2021/12/27 02:01:16;;;;;;;;;;;;;;;2.92;78.85;99557.78;5111729;27;19916;-87
2021/12/27 02:03:42;;;;;;;;;;;;;;;2.95;79.04;99562.16;5110844;28;20003;-87
2021/12/27 02:06:09;;;;;;;;;;;;;;;3.17;78.30;99564.19;5111546;28;20395;-87
2021/12/27 02:08:36;;;;;;;;;;;;;;;3.00;78.07;99566.59;5111110;28;20018;-87
2021/12/27 02:11:01;;;;;;;;;;;;;;;3.08;78.11;99556.25;5111419;28;19970;-87
2021/12/27 02:13:27;;;;;;;;;;;;;;;3.16;77.59;99545.94;5111502;28;20420;-87
2021/12/27 02:15:52;;;;;;;;;;;;;;;3.08;77.83;99539.75;5111869;28;19916;-87
2021/12/27 02:18:18;;;;;;;;;;;;;;;3.10;77.31;99532.81;5111593;28;20404;-87
2021/12/27 02:20:44;;;;;;;;;;;;;;;3.12;77.10;99547.63;5112007;28;19920;-87
2021/12/27 02:23:15;;;;;;;;;;;;;;;3.19;77.43;99532.94;5111552;28;19923;-87
2021/12/27 02:25:41;;;;;;;;;;;;;;;3.15;76.88;99545.06;5111275;28;19955;-86
2021/12/27 02:28:08;;;;;;;;;;;;;;;3.22;76.74;99549.47;5111309;28;19961;-87
2021/12/27 02:30:34;;;;;;;;;;;;;;;3.20;76.53;99548.59;5111535;28;19920;-87
2021/12/27 02:33:03;;;;;;;;;;;;;;;3.12;76.56;99525.88;5111345;28;19916;-87
2021/12/27 02:35:30;;;;;;;;;;;;;;;2.95;76.75;99531.78;5111529;28;19973;-87
2021/12/27 02:37:56;;;;;;;;;;;;;;;2.96;76.48;99537.84;5115249;28;19916;-88
2021/12/27 02:40:23;;;;;;;;;;;;;;;2.60;77.46;99518.28;5115168;28;19922;-87
2021/12/27 02:43:03;;;;;;;;;;;;;;;2.56;78.15;99522.53;5114973;28;20308;-87
2021/12/27 02:45:30;;;;;;;;;;;;;;;2.46;78.43;99511.13;5115324;28;19998;-88
2021/12/27 02:47:55;;;;;;;;;;;;;;;2.47;78.95;99519.78;5115290;28;19916;-87
2021/12/27 02:50:21;;;;;;;;;;;;;;;2.79;77.78;99535.03;5114907;28;20290;-87
2021/12/27 02:52:46;;;;;;;;;;;;;;;2.81;77.74;99526.38;5115212;28;20416;-88
2021/12/27 02:55:15;;;;;;;;;;;;;;;2.69;78.08;99529.69;5114958;28;19920;-87
2021/12/27 02:57:40;;;;;;;;;;;;;;;2.75;77.48;99533.22;5114800;28;19935;-87
2021/12/27 03:00:11;;;;;;;;;;;;;;;2.87;77.43;99536.00;5115029;28;19916;-87
2021/12/27 03:02:36;;;;;;;;;;;;;;;2.97;76.44;99537.88;5113435;28;19916;-87
2021/12/27 03:05:03;;;;;;;;;;;;;;;2.86;76.45;99536.88;5094568;28;20031;-87
2021/12/27 03:07:28;;;;;;;;;;;;;;;2.85;76.56;99530.75;5093382;28;19924;-88
2021/12/27 03:09:57;;;;;;;;;;;;;;;2.73;76.42;99525.38;5093650;28;20462;-87
2021/12/27 03:12:23;;;;;;;;;;;;;;;2.58;76.75;99517.34;5094208;28;19923;-87
2021/12/27 03:14:48;;;;;;;;;;;;;;;2.62;77.02;99521.75;5094267;28;20386;-87
2021/12/27 03:17:13;;;;;;;;;;;;;;;2.73;76.98;99524.50;5093997;28;19920;-87
2021/12/27 03:19:39;;;;;;;;;;;;;;;2.58;76.80;99523.47;5112299;28;20009;-88
2021/12/27 03:22:04;;;;;;;;;;;;;;;2.64;77.48;99515.72;5114054;28;19916;-88
2021/12/27 03:24:29;;;;;;;;;;;;;;;2.70;77.21;99517.53;5113944;28;19920;-88
2021/12/27 03:26:55;;;;;;;;;;;;;;;2.60;77.24;99515.66;5114458;28;19974;-87
2021/12/27 03:29:20;;;;;;;;;;;;;;;2.75;77.64;99525.41;5114277;28;19972;-87
2021/12/27 03:31:45;;;;;;;;;;;;;;;2.65;76.91;99517.47;5112973;27;20010;-87
2021/12/27 03:34:11;;;;;;;;;;;;;;;2.75;77.09;99521.09;5114267;28;19915;-87
2021/12/27 03:36:40;;;;;;;;;;;;;;;2.51;77.83;99519.00;5113338;28;19916;-87
2021/12/27 03:39:10;;;;;;;;;;;;;;;2.54;78.17;99524.25;5113991;28;19923;-87
2021/12/27 03:41:36;;;;;;;;;;;;;;;2.70;77.80;99514.91;5113636;28;19934;-87
2021/12/27 03:44:02;;;;;;;;;;;;;;;2.86;76.93;99510.81;5113731;27;20379;-87
2021/12/27 03:46:28;;;;;;;;;;;;;;;2.89;76.73;99513.47;5113666;28;19915;-87
2021/12/27 03:48:53;;;;;;;;;;;;;;;2.84;77.42;99508.19;5112442;28;20002;-87
2021/12/27 03:51:18;;;;;;;;;;;;;;;2.89;77.30;99512.56;5113535;28;19916;-87
2021/12/27 03:53:44;;;;;;;;;;;;;;;2.94;76.74;99519.59;5113456;28;20443;-86
2021/12/27 03:56:09;;;;;;;;;;;;;;;2.79;77.33;99529.81;5113553;28;19916;-87
2021/12/27 03:58:47;;;;;;;;;;;;;;;2.59;78.40;99534.75;5112096;28;19916;-87
2021/12/27 04:01:16;;;;;;;;;;;;;;;2.89;76.94;99546.44;5113271;28;20290;-86
2021/12/27 04:03:43;;;;;;;;;;;;;;;2.91;77.03;99527.38;5112226;28;19927;-87
2021/12/27 04:06:09;;;;;;;;;;;;;;;2.65;77.50;99535.69;5113743;28;19915;-86
2021/12/27 04:08:34;;;;;;;;;;;;;;;2.18;79.20;99540.16;5111168;28;19927;-86
2021/12/27 04:11:00;;;;;;;;;;;;;;;2.42;79.12;99534.47;5113223;27;19923;-86
2021/12/27 04:13:25;;;;;;;;;;;;;;;2.66;77.77;99527.03;5112567;28;19920;-87
2021/12/27 04:15:51;;;;;;;;;;;;;;;2.36;78.59;99540.47;5112976;28;19919;-87
2021/12/27 04:18:17;;;;;;;;;;;;;;;2.51;77.90;99530.28;5112607;28;19972;-87
2021/12/27 04:20:42;;;;;;;;;;;;;;;2.50;78.03;99538.06;5112318;28;19989;-87
2021/12/27 04:23:07;;;;;;;;;;;;;;;2.33;78.32;99540.41;5113425;28;20290;-87
2021/12/27 04:25:33;;;;;;;;;;;;;;;2.69;77.60;99542.72;5111754;28;19916;-88
2021/12/27 04:27:59;;;;;;;;;;;;;;;2.70;77.62;99540.97;5113242;28;20355;-87
2021/12/27 04:30:24;;;;;;;;;;;;;;;2.39;78.23;99526.63;5112958;27;19922;-86
2021/12/27 04:32:50;;;;;;;;;;;;;;;2.52;78.28;99533.78;5111397;28;20018;-87
2021/12/27 04:35:16;;;;;;;;;;;;;;;2.69;77.95;99536.63;5113197;28;19923;-87
2021/12/27 04:37:41;;;;;;;;;;;;;;;2.54;78.04;99542.47;5112026;28;19915;-88
2021/12/27 04:40:08;;;;;;;;;;;;;;;2.64;78.06;99540.88;5112731;28;20010;-88
2021/12/27 04:42:34;;;;;;;;;;;;;;;2.64;77.99;99533.97;5112020;28;19920;-88
2021/12/27 04:45:00;;;;;;;;;;;;;;;2.62;78.06;99527.84;5110928;28;19969;-88
2021/12/27 04:47:26;;;;;;;;;;;;;;;2.71;77.62;99521.91;5111899;28;19951;-87
2021/12/27 04:49:51;;;;;;;;;;;;;;;2.78;77.51;99521.13;5111586;28;19978;-88
2021/12/27 04:52:17;;;;;;;;;;;;;;;2.78;77.10;99525.44;5112703;28;19942;-88
2021/12/27 04:54:42;;;;;;;;;;;;;;;2.86;77.02;99527.31;5111576;28;19915;-88
2021/12/27 04:57:08;;;;;;;;;;;;;;;2.91;76.45;99513.47;5112629;28;20006;-88
2021/12/27 04:59:33;;;;;;;;;;;;;;;2.86;76.91;99510.81;5111722;28;20333;-88
2021/12/27 05:01:59;;;;;;;;;;;;;;;2.87;76.56;99512.53;5095886;28;19920;-87
2021/12/27 05:04:24;;;;;;;;;;;;;;;2.84;76.56;99512.50;5091110;28;19923;-87
2021/12/27 05:06:50;;;;;;;;;;;;;;;2.60;76.90;99511.31;5090908;28;19920;-87
2021/12/27 05:09:15;;;;;;;;;;;;;;;2.64;77.61;99513.13;5091898;28;19943;-86
2021/12/27 05:11:41;;;;;;;;;;;;;;;2.45;78.45;99514.56;5095730;28;19923;-86
2021/12/27 05:14:06;;;;;;;;;;;;;;;2.64;78.36;99514.84;5112207;28;19945;-88
2021/12/27 05:16:32;;;;;;;;;;;;;;;2.79;78.04;99514.19;5111587;28;19912;-87
2021/12/27 05:18:57;;;;;;;;;;;;;;;2.78;77.43;99528.06;5112491;28;19916;-86
2021/12/27 05:21:23;;;;;;;;;;;;;;;2.62;78.05;99533.03;5111351;28;19916;-86
2021/12/27 05:23:48;;;;;;;;;;;;;;;2.44;78.33;99515.44;5112149;28;19948;-86
2021/12/27 05:26:13;;;;;;;;;;;;;;;2.60;78.40;99519.13;5111631;28;20356;-86
2021/12/27 05:28:39;;;;;;;;;;;;;;;2.74;78.29;99527.16;5111903;28;19938;-87
2021/12/27 05:31:04;;;;;;;;;;;;;;;2.78;77.73;99534.16;5112197;28;19915;-86
2021/12/27 05:33:29;;;;;;;;;;;;;;;2.71;78.24;99539.25;5095231;28;20382;-86
2021/12/27 05:35:55;;;;;;;;;;;;;;;2.85;78.00;99542.91;5091506;28;19923;-86
2021/12/27 05:38:20;;;;;;;;;;;;;;;2.54;78.95;99542.47;5090774;28;19916;-87
2021/12/27 05:40:45;;;;;;;;;;;;;;;2.48;79.27;99537.19;5095037;28;19920;-88
2021/12/27 05:43:11;;;;;;;;;;;;;;;2.74;79.17;99536.69;5111893;28;19916;-88
2021/12/27 05:45:36;;;;;;;;;;;;;;;2.78;78.54;99526.34;5110129;28;19938;-88
2021/12/27 05:48:02;;;;;;;;;;;;;;;2.83;78.91;99529.00;5112076;28;19916;-88
2021/12/27 05:50:28;;;;;;;;;;;;;;;2.33;80.22;99528.28;5109488;28;19912;-88
2021/12/27 05:52:53;;;;;;;;;;;;;;;2.77;79.77;99539.34;5111846;28;19920;-88
2021/12/27 05:55:19;;;;;;;;;;;;;;;2.64;79.85;99541.78;5110899;28;20381;-88
2021/12/27 05:57:44;;;;;;;;;;;;;;;2.62;79.42;99538.25;5110963;28;20270;-87
2021/12/27 06:00:10;;;;;;;;;;;;;;;2.77;79.83;99524.59;5111590;28;19926;-89
2021/12/27 06:02:36;;;;;;;;;;;;;;;2.90;79.30;99538.63;5111307;28;19923;-88
2021/12/27 06:05:01;;;;;;;;;;;;;;;2.89;79.22;99529.09;5111654;27;19919;-89
2021/12/27 06:07:26;;;;;;;;;;;;;;;3.00;79.44;99522.28;5111332;28;19949;-86
2021/12/27 06:09:52;;;;;;;;;;;;;;;3.23;78.46;99537.34;5111970;28;19916;-87
2021/12/27 06:12:17;;;;;;;;;;;;;;;3.22;78.27;99535.59;5103432;28;19927;-87
2021/12/27 06:14:43;;;;;;;;;;;;;;;3.10;78.32;99540.66;5094642;28;19920;-87
2021/12/27 06:17:08;;;;;;;;;;;;;;;3.10;78.89;99528.47;5093218;28;20382;-87
2021/12/27 06:19:33;;;;;;;;;;;;;;;3.41;77.82;99523.63;5094765;28;20014;-87
2021/12/27 06:21:59;;;;;;;;;;;;;;;3.55;78.17;99529.00;5112239;28;20502;-88
2021/12/27 06:24:24;;;;;;;;;;;;;;;3.43;77.14;99526.25;5114610;28;19923;-87
2021/12/27 06:26:49;;;;;;;;;;;;;;;3.18;78.57;99529.47;5114634;28;20389;-88
2021/12/27 06:29:15;;;;;;;;;;;;;;;3.28;78.05;99540.88;5114642;28;20380;-88
2021/12/27 06:31:40;;;;;;;;;;;;;;;3.47;77.33;99541.94;5114680;28;19915;-88
2021/12/27 06:34:06;;;;;;;;;;;;;;;3.48;77.02;99537.63;5114616;28;20397;-88
2021/12/27 06:36:32;;;;;;;;;;;;;;;3.49;77.56;99535.03;5114713;28;20378;-87
2021/12/27 06:38:57;;;;;;;;;;;;;;;3.54;76.85;99533.34;5114724;28;19923;-86
2021/12/27 06:41:26;;;;;;;;;;;;;;;3.47;76.65;99538.47;5113019;28;19915;-85
2021/12/27 06:43:54;;;;;;;;;;;;;;;3.55;76.73;99544.66;5114431;28;19915;-86
2021/12/27 06:46:19;;;;;;;;;;;;;;;3.61;76.09;99547.31;5114148;28;20010;-87
2021/12/27 06:48:44;;;;;;;;;;;;;;;3.75;75.15;99535.31;5114828;28;20019;-86
2021/12/27 06:51:10;;;;;;;;;;;;;;;3.57;75.76;99537.72;5115064;28;19916;-87
2021/12/27 06:53:35;;;;;;;;;;;;;;;3.50;76.53;99526.34;5115408;28;19915;-87
2021/12/27 06:56:02;;;;;;;;;;;;;;;3.46;76.43;99528.88;5113049;28;19973;-86
2021/12/27 06:58:28;;;;;;;;;;;;;;;3.72;76.61;99537.88;5114870;28;19920;-85
2021/12/27 07:00:53;;;;;;;;;;;;;;;3.83;76.13;99527.56;5114602;28;20007;-85
2021/12/27 07:03:19;;;;;;;;;;;;;;;3.58;76.91;99539.47;5113592;28;20376;-85
2021/12/27 07:05:44;;;;;;;;;;;;;;;3.79;77.00;99537.94;5114959;28;19916;-85
2021/12/27 07:08:09;;;;;;;;;;;;;;;3.83;76.32;99518.84;5114746;28;19919;-85
2021/12/27 07:10:35;;;;;;;;;;;;;;;4.00;76.07;99519.88;5114744;28;19916;-85
2021/12/27 07:13:03;;;;;;;;;;;;;;;4.05;75.02;99526.00;5114587;28;20351;-85
2021/12/27 07:15:29;;;;;;;;;;;;;;;4.05;75.37;99528.63;5114316;28;20389;-86
2021/12/27 07:17:54;;;;;;;;;;;;;;;4.18;75.13;99523.50;5112224;28;19931;-86
2021/12/27 07:20:19;;;;;;;;;;;;;;;4.05;75.56;99520.78;5093551;27;19916;-85
2021/12/27 07:22:45;;;;;;;;;;;;;;;3.57;77.70;99522.06;5090995;28;20442;-86
2021/12/27 07:25:10;;;;;;;;;;;;;;;3.28;78.38;99524.38;5092978;28;20401;-86
2021/12/27 07:27:36;;;;;;;;;;;;;;;3.54;78.13;99528.13;5093224;28;19917;-86
2021/12/27 07:30:03;;;;;;;;;;;;;;;3.91;76.97;99520.66;5092951;28;19949;-86
2021/12/27 07:32:28;;;;;;;;;;;;;;;3.84;77.08;99515.38;5093648;28;19939;-87
2021/12/27 07:34:54;;;;;;;;;;;;;;;4.05;76.52;99528.63;5093798;28;19916;-87
2021/12/27 07:37:19;;;;;;;;;;;;;;;4.17;75.65;99533.09;5092688;28;19920;-87
2021/12/27 07:39:44;;;;;;;;;;;;;;;4.35;75.23;99541.91;5093479;28;19952;-88
2021/12/27 07:42:10;;;;;;;;;;;;;;;4.42;76.02;99541.09;5108590;28;19920;-87
2021/12/27 07:44:35;;;;;;;;;;;;;;;4.44;75.61;99521.09;5113441;28;19920;-86
2021/12/27 07:47:01;;;;;;;;;;;;;;;4.42;75.79;99521.06;5113320;28;19920;-87
2021/12/27 07:49:26;;;;;;;;;;;;;;;4.72;74.87;99529.09;5110914;28;19967;-86
2021/12/27 07:51:51;;;;;;;;;;;;;;;4.79;74.68;99530.91;5109397;28;20404;-86
2021/12/27 07:54:17;;;;;;;;;;;;;;;5.00;74.05;99530.13;5113273;28;19927;-87
2021/12/27 07:56:42;;;;;;;;;;;;;;;5.13;73.87;99525.84;5113577;27;19943;-84
2021/12/27 07:59:08;;;;;;;;;;;;;;;5.20;73.29;99517.13;5113222;28;19915;-86
2021/12/27 08:01:34;;;;;;;;;;;;;;;4.83;74.33;99523.09;5112716;28;20083;-83
2021/12/27 08:04:00;;;;;;;;;;;;;;;4.73;74.61;99523.03;5112764;28;20361;-85
2021/12/27 08:06:25;;;;;;;;;;;;;;;5.08;74.20;99544.13;5113016;28;19923;-87
2021/12/27 08:08:51;;;;;;;;;;;;;;;5.18;74.07;99535.44;5112241;28;20394;-87
2021/12/27 08:11:16;;;;;;;;;;;;;;;5.36;73.35;99536.38;5111360;28;19916;-88
2021/12/27 08:13:42;;;;;;;;;;;;;;;5.43;73.66;99524.22;5091705;28;20356;-87
2021/12/27 08:16:08;;;;;;;;;;;;;;;5.46;73.18;99521.59;5092208;28;20006;-87
2021/12/27 08:18:34;;;;;;;;;;;;;;;5.26;73.50;99532.84;5091621;28;20302;-87
2021/12/27 08:20:59;;;;;;;;;;;;;;;5.47;72.63;99512.84;5102237;28;19920;-87
2021/12/27 08:23:24;;;;;;;;;;;;;;;5.61;71.82;99521.63;5113819;28;20453;-87
2021/12/27 08:25:50;;;;;;;;;;;;;;;5.63;71.30;99512.03;5111943;28;20452;-87
2021/12/27 08:28:15;;;;;;;;;;;;;;;5.67;71.50;99516.41;5113581;28;19916;-87
2021/12/27 08:30:41;;;;;;;;;;;;;;;5.59;71.26;99512.03;5113014;28;20450;-87
2021/12/27 08:33:06;;;;;;;;;;;;;;;5.69;71.25;99527.75;5099805;28;20460;-87
2021/12/27 08:35:31;;;;;;;;;;;;;;;5.38;71.86;99505.88;5092498;28;19916;-87
2021/12/27 08:37:57;;;;;;;;;;;;;;;5.47;71.98;99505.00;5091690;28;19919;-87
2021/12/27 08:40:22;;;;;;;;;;;;;;;5.66;71.85;99495.47;5092707;28;19973;-86
2021/12/27 08:42:48;;;;;;;;;;;;;;;5.72;71.37;99508.56;5112749;28;19941;-86
2021/12/27 08:45:13;;;;;;;;;;;;;;;5.51;72.63;99504.16;5112050;28;19919;-87
2021/12/27 08:47:40;;;;;;;;;;;;;;;5.90;71.30;99503.38;5111618;28;19922;-87
2021/12/27 08:50:06;;;;;;;;;;;;;;;6.16;70.52;99502.50;5112205;28;20290;-86
2021/12/27 08:52:32;;;;;;;;;;;;;;;5.95;70.35;99502.47;5111779;28;19973;-87
2021/12/27 08:55:01;;;;;;;;;;;;;;;6.15;70.38;99492.03;5111888;28;19972;-87
2021/12/27 08:57:26;;;;;;;;;;;;;;;6.32;69.93;99484.16;5111628;28;19916;-87
2021/12/27 08:59:52;;;;;;;;;;;;;;;6.00;70.50;99479.84;5111710;28;20446;-87
2021/12/27 09:02:17;;;;;;;;;;;;;;;6.26;69.82;99492.94;5112018;27;20416;-85
2021/12/27 09:04:43;;;;;;;;;;;;;;;6.04;71.02;99492.03;5111954;28;19916;-87
2021/12/27 09:07:09;;;;;;;;;;;;;;;6.38;69.97;99485.06;5111794;28;20023;-86
2021/12/27 09:09:34;;;;;;;;;;;;;;;6.41;69.39;99487.66;5110361;28;20328;-86
2021/12/27 09:12:00;;;;;;;;;;;;;;;6.39;69.53;99485.91;5111821;28;19916;-87
2021/12/27 09:14:28;;;;;;;;;;;;;;;6.12;70.28;99482.47;5110139;28;21322;-87
2021/12/27 09:16:53;;;;;;;;;;;;;;;6.37;70.17;99487.69;5111964;28;19973;-86
2021/12/27 09:19:18;;;;;;;;;;;;;;;6.16;70.56;99494.66;5112057;28;20002;-86
2021/12/27 09:21:44;;;;;;;;;;;;;;;6.41;70.27;99481.53;5111323;28;19946;-85
2021/12/27 09:24:09;;;;;;;;;;;;;;;6.78;69.83;99479.72;5109865;28;19920;-85
2021/12/27 09:26:35;;;;;;;;;;;;;;;6.98;69.00;99479.66;5111157;28;19915;-86
2021/12/27 09:29:01;;;;;;;;;;;;;;;7.11;69.11;99464.72;5111049;28;19916;-86
2021/12/27 09:31:26;;;;;;;;;;;;;;;6.85;68.96;99459.59;5111276;28;19916;-85
2021/12/27 09:33:51;;;;;;;;;;;;;;;6.88;69.41;99469.22;5111538;28;19916;-85
2021/12/27 09:36:17;;;;;;;;;;;;;;;6.96;68.55;99463.03;5111572;28;19916;-87
2021/12/27 09:38:42;;;;;;;;;;;;;;;7.11;68.50;99471.75;5111064;28;19915;-86
2021/12/27 09:41:08;;;;;;;;;;;;;;;7.11;67.99;99467.34;5104294;28;19966;-86
2021/12/27 09:43:35;;;;;;;;;;;;;;;7.14;67.98;99469.97;5090516;28;19939;-88
2021/12/27 09:46:01;;;;;;;;;;;;;;;7.06;68.41;99463.00;5089199;28;19924;-87
2021/12/27 09:48:27;;;;;;;;;;;;;;;6.98;68.67;99465.66;5090601;28;19926;-87
2021/12/27 09:50:55;;;;;;;;;;;;;;;7.16;68.12;99449.81;5106451;28;20022;-88
2021/12/27 09:53:20;;;;;;;;;;;;;;;7.37;67.94;99453.25;5111315;28;19998;-87
2021/12/27 09:55:45;;;;;;;;;;;;;;;7.31;67.53;99446.25;5110388;28;19966;-87
2021/12/27 09:58:11;;;;;;;;;;;;;;;7.21;68.06;99441.06;5110727;28;19920;-87
2021/12/27 10:00:37;;;;;;;;;;;;;;;7.29;67.69;99450.66;5111182;28;19969;-88
2021/12/27 10:03:03;;;;;;;;;;;;;;;6.92;69.48;99440.34;5110332;28;19920;-87
2021/12/27 10:05:29;;;;;;;;;;;;;;;6.75;69.84;99436.91;5110993;28;20350;-87
2021/12/27 10:07:56;;;;;;;;;;;;;;;6.94;69.78;99451.69;5110522;28;19923;-87
2021/12/27 10:10:21;;;;;;;;;;;;;;;6.96;69.38;99438.56;5110984;28;19919;-87
2021/12/27 10:12:48;;;;;;;;;;;;;;;7.13;68.80;99422.75;5096930;28;19982;-87
2021/12/27 10:15:16;;;;;;;;;;;;;;;7.19;68.58;99433.22;5090826;28;19920;-87
2021/12/27 10:17:42;;;;;;;;;;;;;;;7.16;68.79;99425.34;5090008;28;19916;-86
2021/12/27 10:20:13;;;;;;;;;;;;;;;7.35;67.94;99441.84;5090314;28;20372;-83
2021/12/27 10:22:39;;;;;;;;;;;;;;;7.42;68.09;99419.94;5090437;28;20309;-85
2021/12/27 10:25:08;;;;;;;;;;;;;;;7.40;68.26;99432.22;5089590;28;19916;-85
2021/12/27 10:27:35;;;;;;;;;;;;;;;7.32;68.75;99424.41;5090190;28;19916;-84
2021/12/27 10:30:07;;;;;;;;;;;;;;;7.49;67.97;99410.28;5090410;28;19966;-85
2021/12/27 10:32:33;;;;;;;;;;;;;;;7.44;67.75;99407.69;5089997;28;19931;-85
2021/12/27 10:34:58;;;;;;;;;;;;;;;7.42;67.57;99403.34;5090554;28;19920;-85
2021/12/27 10:37:31;;;;;;;;;;;;;;;7.51;67.81;99400.66;5089374;28;20321;-86
2021/12/27 10:39:56;;;;;;;;;;;;;;;7.31;68.07;99398.16;5090400;28;19923;-85
2021/12/27 10:42:24;;;;;;;;;;;;;;;7.53;67.19;99393.63;5089885;28;19916;-85
2021/12/27 10:44:53;;;;;;;;;;;;;;;7.61;66.25;99389.19;5090177;28;19973;-85
2021/12/27 10:47:26;;;;;;;;;;;;;;;7.48;66.77;99384.94;5090070;28;19917;-85
2021/12/27 10:49:52;;;;;;;;;;;;;;;7.65;66.58;99388.28;5097528;28;20010;-86
2021/12/27 10:52:18;;;;;;;;;;;;;;;7.25;67.89;99387.72;5110575;27;20356;-85
2021/12/27 10:54:43;;;;;;;;;;;;;;;7.71;66.90;99375.09;5109387;28;19969;-85
2021/12/27 10:57:08;;;;;;;;;;;;;;;7.68;67.15;99375.13;5111406;28;20019;-86
2021/12/27 10:59:34;;;;;;;;;;;;;;;7.93;67.32;99376.69;5112550;28;20313;-85
2021/12/27 11:02:10;;;;;;;;;;;;;;;8.03;66.50;99368.72;5114466;28;20002;-86
2021/12/27 11:04:35;;;;;;;;;;;;;;;7.57;66.97;99371.75;5096396;28;19923;-86
2021/12/27 11:07:01;;;;;;;;;;;;;;;7.93;66.21;99367.03;5093448;28;19943;-86
2021/12/27 11:09:27;;;;;;;;;;;;;;;7.86;65.50;99365.34;5092961;28;19920;-87
2021/12/27 11:11:52;;;;;;;;;;;;;;;7.49;67.52;99366.53;5126357;27;19916;-86
2021/12/27 11:14:17;;;;;;;;;;;;;;;7.89;66.75;99349.56;5093435;28;20423;-87
2021/12/27 11:16:43;;;;;;;;;;;;;;;8.14;65.98;99362.44;5093291;28;19924;-85
2021/12/27 11:19:08;;;;;;;;;;;;;;;8.14;65.59;99344.06;5107302;28;19920;-84
2021/12/27 11:21:36;;;;;;;;;;;;;;;7.87;65.62;99336.44;5113523;28;20470;-86
2021/12/27 11:24:02;;;;;;;;;;;;;;;7.92;66.30;99346.91;5112886;28;20423;-87
2021/12/27 11:26:28;;;;;;;;;;;;;;;7.74;67.63;99349.69;5112407;28;20018;-86
2021/12/27 11:29:08;;;;;;;;;;;;;;;7.96;66.70;99342.50;5113852;28;19923;-85
2021/12/27 11:31:33;;;;;;;;;;;;;;;8.27;64.94;99337.78;5113597;28;20015;-86
2021/12/27 11:34:03;;;;;;;;;;;;;;;7.95;66.20;99339.00;5112984;28;20006;-86
2021/12/27 11:36:33;;;;;;;;;;;;;;;7.95;66.79;99333.75;5113340;28;19963;-86
2021/12/27 11:39:16;;;;;;;;;;;;;;;8.16;66.24;99326.53;5111573;28;20294;-85
2021/12/27 11:41:41;;;;;;;;;;;;;;;8.39;65.15;99315.75;5106981;28;19949;-85
2021/12/27 11:44:07;;;;;;;;;;;;;;;8.58;64.16;99304.13;5113098;28;20460;-86
2021/12/27 11:46:48;;;;;;;;;;;;;;;8.67;64.12;99299.66;5113110;28;19920;-86
2021/12/27 11:49:14;;;;;;;;;;;;;;;8.63;64.26;99304.06;5113602;28;19962;-87
2021/12/27 11:51:40;;;;;;;;;;;;;;;8.69;63.78;99292.63;5112943;28;20372;-85
2021/12/27 11:54:27;;;;;;;;;;;;;;;8.67;63.43;99295.28;5113063;27;20317;-84
2021/12/27 11:56:52;;;;;;;;;;;;;;;8.65;64.77;99297.06;5112891;27;19954;-84
2021/12/27 11:59:32;;;;;;;;;;;;;;;8.68;64.16;99282.97;5113150;28;19959;-85
2021/12/27 12:02:01;;;;;;;;;;;;;;;8.83;63.89;99276.66;5111505;28;19967;-85
2021/12/27 12:04:40;;;;;;;;;;;;;;;8.90;63.62;99278.31;5111563;28;19916;-87
2021/12/27 12:07:07;;;;;;;;;;;;;;;8.94;63.15;99282.59;5112849;28;19920;-85
2021/12/27 12:09:42;;;;;;;;;;;;;;;8.75;63.50;99268.88;5111707;28;19949;-87
2021/12/27 12:12:11;;;;;;;;;;;;;;;8.88;63.49;99280.06;5112779;27;19918;-86
2021/12/27 12:14:36;;;;;;;;;;;;;;;9.13;62.87;99265.66;5112492;28;19922;-85
2021/12/27 12:17:09;;;;;;;;;;;;;;;9.13;63.29;99268.28;5112915;28;19915;-86
2021/12/27 12:19:36;;;;;;;;;;;;;;;8.83;64.55;99260.88;5112447;27;19916;-87
2021/12/27 12:22:02;;;;;;;;;;;;;;;9.02;64.00;99269.34;5112687;28;19920;-87
2021/12/27 12:24:27;;;;;;;;;;;;;;;8.69;65.60;99266.31;5112711;28;19920;-86
2021/12/27 12:26:59;;;;;;;;;;;;;;;8.90;64.74;99252.00;5112753;27;19922;-86
2021/12/27 12:29:25;;;;;;;;;;;;;;;9.22;62.96;99255.88;5112729;28;19916;-86
2021/12/27 12:32:01;;;;;;;;;;;;;;;9.13;63.77;99243.75;5111404;28;19916;-87
2021/12/27 12:34:27;;;;;;;;;;;;;;;9.04;64.36;99238.63;5112284;28;19916;-88
2021/12/27 12:36:52;;;;;;;;;;;;;;;9.16;63.57;99251.59;5111706;28;19916;-87
2021/12/27 12:39:18;;;;;;;;;;;;;;;9.08;63.56;99246.44;5112163;28;20342;-86
2021/12/27 12:41:44;;;;;;;;;;;;;;;9.30;63.41;99256.63;5111539;28;19920;-87
2021/12/27 12:44:09;;;;;;;;;;;;;;;9.02;63.93;99254.44;5112257;27;19969;-87
2021/12/27 12:46:46;;;;;;;;;;;;;;;9.16;64.09;99262.13;5109435;28;19965;-86
2021/12/27 12:49:17;;;;;;;;;;;;;;;9.03;63.70;99247.41;5111075;28;19915;-85
2021/12/27 12:51:46;;;;;;;;;;;;;;;9.16;63.87;99248.06;5111780;28;19916;-85
2021/12/27 12:54:23;;;;;;;;;;;;;;;9.13;64.52;99243.75;5112192;28;20403;-85
2021/12/27 12:56:50;;;;;;;;;;;;;;;9.16;64.25;99242.81;5111259;28;19915;-84